createdAt,value
2019-02-26T00:05:03.381Z,21.08
2019-02-26T00:10:08.969Z,21.08
2019-02-26T00:15:12.913Z,21.09
2019-02-26T00:20:17.620Z,21.08
2019-02-26T00:25:21.511Z,21.07
2019-02-26T00:30:24.984Z,21.08
2019-02-26T00:35:28.466Z,21.07
2019-02-26T00:40:32.706Z,21.07
2019-02-26T00:45:39.039Z,21.06
2019-02-26T00:50:42.325Z,21.05
2019-02-26T00:55:45.803Z,21.04
2019-02-26T01:00:49.274Z,21.05
2019-02-26T01:05:52.744Z,21.04
2019-02-26T01:10:57.062Z,21.03
2019-02-26T01:16:01.420Z,21.03
2019-02-26T01:21:04.958Z,21.02
2019-02-26T01:26:10.053Z,21.02
2019-02-26T01:31:13.634Z,21.02
2019-02-26T01:36:19.165Z,21.02
2019-02-26T01:41:24.545Z,21.00
2019-02-26T01:46:27.499Z,21.00
2019-02-26T01:51:30.970Z,20.98
2019-02-26T01:56:36.518Z,20.98
2019-02-26T02:01:42.075Z,20.99
2019-02-26T02:06:44.837Z,20.97
2019-02-26T02:11:48.307Z,20.96
2019-02-26T02:16:51.777Z,20.97
2019-02-26T02:21:56.044Z,20.96
2019-02-26T02:27:00.450Z,20.95
2019-02-26T02:32:05.079Z,20.94
2019-02-26T02:37:09.124Z,20.93
2019-02-26T02:42:14.143Z,20.92
2019-02-26T02:47:17.812Z,20.94
2019-02-26T02:52:21.288Z,20.92
2019-02-26T02:57:26.780Z,20.91
2019-02-26T03:02:29.968Z,20.91
2019-02-26T03:07:33.439Z,20.91
2019-02-26T03:12:36.913Z,20.89
2019-02-26T03:17:40.386Z,20.89
2019-02-26T03:22:48.696Z,20.90
2019-02-26T03:27:49.059Z,20.90
2019-02-26T03:32:58.429Z,20.89
2019-02-26T03:37:58.928Z,20.88
2019-02-26T03:43:04.501Z,20.89
2019-02-26T03:48:08.169Z,20.86
2019-02-26T03:53:11.649Z,20.86
2019-02-26T03:58:15.128Z,20.85
2019-02-26T04:03:18.789Z,20.84
2019-02-26T04:08:24.296Z,20.85
2019-02-26T04:13:27.460Z,20.84
2019-02-26T04:18:34.163Z,20.84
2019-02-26T04:23:38.950Z,20.84
2019-02-26T04:28:50.203Z,20.82
2019-02-26T04:34:08.547Z,20.82
2019-02-26T04:39:34.086Z,20.81
2019-02-26T04:44:42.714Z,20.83
2019-02-26T04:49:46.184Z,20.84
2019-02-26T04:54:49.662Z,20.84
2019-02-26T04:59:55.485Z,20.81
2019-02-26T05:04:58.337Z,20.82
2019-02-26T05:10:02.312Z,20.81
2019-02-26T05:15:11.497Z,20.80
2019-02-26T05:20:15.485Z,20.80
2019-02-26T05:25:19.779Z,20.79
2019-02-26T05:30:22.918Z,20.79
2019-02-26T05:35:26.373Z,20.78
2019-02-26T05:40:29.847Z,20.77
2019-02-26T05:45:35.659Z,20.78
2019-02-26T05:50:40.869Z,20.76
2019-02-26T05:55:47.085Z,20.76
2019-02-26T06:00:48.951Z,20.75
2019-02-26T06:05:54.886Z,20.73
2019-02-26T06:10:57.651Z,20.74
2019-02-26T06:16:02.276Z,20.73
2019-02-26T06:21:06.356Z,20.72
2019-02-26T06:26:14.158Z,20.73
2019-02-26T06:31:17.478Z,20.72
2019-02-26T06:36:21.510Z,20.71
2019-02-26T06:41:25.517Z,20.71
2019-02-26T06:46:31.250Z,20.70
2019-02-26T06:51:34.216Z,20.69
2019-02-26T06:56:41.392Z,20.70
2019-02-26T07:01:42.918Z,20.69
2019-02-26T07:06:46.403Z,20.69
2019-02-26T07:11:49.892Z,20.69
2019-02-26T07:16:53.396Z,20.68
2019-02-26T07:21:56.883Z,20.70
2019-02-26T07:27:02.018Z,20.70
2019-02-26T07:32:05.581Z,20.74
2019-02-26T07:37:11.148Z,20.79
2019-02-26T07:42:16.496Z,20.77
2019-02-26T07:47:19.505Z,20.74
2019-02-26T07:52:24.197Z,19.90
2019-02-26T07:57:28.204Z,19.30
2019-02-26T08:02:32.522Z,18.68
2019-02-26T08:07:36.912Z,18.18
2019-02-26T08:12:42.587Z,18.25
2019-02-26T08:17:48.342Z,18.59
2019-02-26T08:22:51.512Z,18.59
2019-02-26T08:27:58.319Z,19.07
2019-02-26T08:33:04.315Z,19.37
2019-02-26T08:38:06.498Z,19.56
2019-02-26T08:43:09.983Z,19.70
2019-02-26T08:48:14.945Z,19.82
2019-02-26T08:53:19.743Z,19.92
2019-02-26T08:58:25.716Z,19.99
2019-02-26T09:03:29.112Z,20.07
2019-02-26T09:08:33.067Z,20.12
2019-02-26T09:13:38.858Z,20.16
2019-02-26T09:18:43.034Z,20.21
2019-02-26T09:23:49.499Z,20.24
2019-02-26T09:28:52.421Z,20.27
2019-02-26T09:33:56.949Z,20.31
2019-02-26T09:39:00.446Z,20.35
2019-02-26T09:44:06.569Z,20.38
2019-02-26T09:49:12.102Z,20.40
2019-02-26T09:54:15.162Z,20.42
2019-02-26T09:59:19.573Z,20.45
2019-02-26T10:04:24.293Z,20.47
2019-02-26T10:09:29.142Z,20.48
2019-02-26T10:14:33.515Z,20.50
2019-02-26T10:19:38.726Z,20.53
2019-02-26T10:24:43.038Z,20.52
2019-02-26T10:29:47.545Z,20.57
2019-02-26T10:34:51.679Z,20.58
2019-02-26T10:39:55.225Z,20.62
2019-02-26T10:44:58.699Z,20.64
2019-02-26T10:50:02.190Z,20.64
2019-02-26T10:55:07.686Z,20.67
2019-02-26T11:00:25.271Z,20.67
2019-02-26T11:05:28.036Z,20.64
2019-02-26T11:10:32.050Z,20.63
2019-02-26T11:15:36.077Z,20.67
2019-02-26T11:20:39.673Z,20.71
2019-02-26T11:25:43.147Z,20.74
2019-02-26T11:30:49.046Z,20.79
2019-02-26T11:35:51.825Z,20.74
2019-02-26T11:40:55.302Z,20.83
2019-02-26T11:45:59.718Z,20.85
2019-02-26T11:51:04.158Z,20.86
2019-02-26T11:56:07.696Z,20.87
2019-02-26T12:01:11.178Z,20.87
2019-02-26T12:06:14.650Z,20.89
2019-02-26T12:11:20.314Z,20.90
2019-02-26T12:16:23.320Z,20.92
2019-02-26T12:21:28.070Z,20.92
2019-02-26T12:26:32.000Z,20.92
2019-02-26T12:31:36.968Z,20.91
2019-02-26T12:36:40.668Z,20.93
2019-02-26T12:41:45.232Z,20.92
2019-02-26T12:46:51.148Z,20.95
2019-02-26T12:51:56.764Z,20.69
2019-02-26T12:57:00.623Z,20.65
2019-02-26T13:07:10.142Z,20.86
2019-02-26T13:12:17.147Z,20.88
2019-02-26T13:17:21.107Z,20.89
2019-02-26T13:22:24.016Z,20.93
2019-02-26T13:27:27.489Z,20.94
2019-02-26T13:32:32.390Z,20.94
2019-02-26T13:37:40.547Z,20.96
2019-02-26T13:42:41.365Z,20.96
2019-02-26T13:47:45.072Z,20.97
2019-02-26T13:52:48.537Z,20.99
2019-02-26T13:57:52.016Z,21.01
2019-02-26T14:02:55.494Z,20.97
2019-02-26T14:07:58.966Z,20.99
2019-02-26T14:13:03.829Z,20.99
2019-02-26T14:18:07.471Z,21.07
2019-02-26T14:23:10.946Z,21.06
2019-02-26T14:28:14.418Z,21.05
2019-02-26T14:33:17.889Z,21.06
2019-02-26T14:38:21.363Z,21.09
2019-02-26T14:43:24.844Z,21.07
2019-02-26T14:48:28.314Z,21.09
2019-02-26T14:53:31.786Z,21.08
2019-02-26T14:58:35.264Z,21.07
2019-02-26T15:03:38.739Z,21.09
2019-02-26T15:08:42.220Z,21.11
2019-02-26T15:13:45.695Z,21.14
2019-02-26T15:18:49.174Z,21.12
2019-02-26T15:23:52.649Z,21.12
2019-02-26T15:28:56.122Z,21.13
2019-02-26T15:33:59.594Z,21.13
2019-02-26T15:39:03.243Z,21.14
2019-02-26T15:44:06.720Z,21.14
2019-02-26T15:49:10.190Z,21.13
2019-02-26T15:54:13.661Z,21.13
2019-02-26T15:59:17.136Z,21.12
2019-02-26T16:04:20.606Z,21.11
2019-02-26T16:09:24.080Z,21.11
2019-02-26T16:14:27.549Z,21.11
2019-02-26T16:19:31.021Z,21.12
2019-02-26T16:24:34.494Z,21.09
2019-02-26T16:29:37.972Z,21.11
2019-02-26T16:34:41.455Z,21.11
2019-02-26T16:39:44.930Z,21.11
2019-02-26T16:44:48.404Z,21.13
2019-02-26T16:49:51.878Z,21.13
2019-02-26T16:54:55.351Z,21.13
2019-02-26T16:59:58.831Z,21.15
2019-02-26T17:05:02.300Z,21.09
2019-02-26T17:10:09.149Z,21.12
2019-02-26T17:15:18.302Z,21.14
2019-02-26T17:20:22.459Z,21.16
2019-02-26T17:25:28.641Z,21.18
2019-02-26T17:30:31.978Z,21.15
2019-02-26T17:35:35.637Z,21.18
2019-02-26T17:40:39.125Z,21.19
2019-02-26T17:45:42.614Z,21.19
2019-02-26T17:50:46.621Z,21.19
2019-02-26T17:55:50.177Z,21.18
2019-02-26T18:00:55.535Z,21.20
2019-02-26T18:05:59.020Z,21.20
2019-02-26T18:11:02.514Z,21.22
2019-02-26T18:16:09.156Z,21.22
2019-02-26T18:21:11.231Z,21.22
2019-02-26T18:26:17.603Z,21.22
2019-02-26T18:31:26.298Z,21.23
2019-02-26T18:36:25.147Z,21.25
2019-02-26T18:41:30.464Z,21.25
2019-02-26T18:46:34.241Z,21.27
2019-02-26T18:51:37.745Z,21.27
2019-02-26T18:56:43.523Z,21.28
2019-02-26T19:01:47.009Z,21.27
2019-02-26T19:06:50.508Z,21.29
2019-02-26T19:11:55.563Z,21.29
2019-02-26T19:16:59.227Z,21.29
2019-02-26T19:22:02.720Z,21.31
2019-02-26T19:27:06.279Z,21.30
2019-02-26T19:32:09.780Z,21.32
2019-02-26T19:37:13.253Z,21.33
2019-02-26T19:42:17.896Z,21.30
2019-02-26T19:47:22.747Z,21.32
2019-02-26T19:52:26.890Z,21.32
2019-02-26T19:57:30.914Z,21.33
2019-02-26T20:02:34.413Z,21.32
2019-02-26T20:07:37.890Z,21.32
2019-02-26T20:12:41.440Z,21.32
2019-02-26T20:17:48.891Z,21.33
2019-02-26T20:22:50.115Z,21.33
2019-02-26T20:27:55.172Z,21.28
2019-02-26T20:32:58.782Z,21.29
2019-02-26T20:38:02.257Z,21.32
2019-02-26T20:43:05.750Z,21.31
2019-02-26T20:48:09.206Z,21.30
2019-02-26T20:53:12.682Z,21.32
2019-02-26T20:58:16.155Z,21.31
2019-02-26T21:03:19.629Z,21.32
2019-02-26T21:08:23.104Z,21.32
2019-02-26T21:13:26.572Z,21.31
2019-02-26T21:18:31.250Z,21.31
2019-02-26T21:23:34.776Z,21.30
2019-02-26T21:28:38.244Z,21.30
2019-02-26T21:33:41.718Z,21.29
2019-02-26T21:38:45.189Z,21.30
2019-02-26T21:43:48.662Z,21.27
2019-02-26T21:48:52.138Z,21.28
2019-02-26T21:53:55.614Z,21.27
2019-02-26T21:58:59.718Z,21.27
2019-02-26T22:04:03.933Z,21.25
2019-02-26T22:09:07.778Z,21.25
2019-02-26T22:14:12.890Z,21.24
2019-02-26T22:19:16.368Z,21.25
2019-02-26T22:24:19.848Z,21.24
2019-02-26T22:29:23.314Z,21.24
2019-02-26T22:34:26.787Z,21.24
2019-02-26T22:39:30.261Z,21.23
2019-02-26T22:44:33.738Z,21.23
2019-02-26T22:49:37.211Z,21.23
2019-02-26T22:54:43.109Z,21.22
2019-02-26T22:59:45.888Z,21.22
2019-02-26T23:04:52.559Z,21.22
2019-02-26T23:09:54.629Z,21.21
2019-02-26T23:14:58.109Z,21.21
2019-02-26T23:20:01.735Z,21.21
2019-02-26T23:25:07.733Z,21.21
2019-02-26T23:30:13.812Z,21.21
2019-02-26T23:35:17.357Z,21.19
2019-02-26T23:40:20.887Z,21.19
2019-02-26T23:45:24.868Z,21.20
2019-02-26T23:50:28.405Z,21.20
2019-02-26T23:55:31.940Z,21.20
